McGrath, AK

4:21 AM AKST on December 28, 2014 (GMT -0900)
Tatalina | Change Station
CLOSE
Current Station
Airport
Location: Tatalina,
Elevation: 965 ft
Nearby Weather Stations
Active Advisory: High Wind Warning

Elev 965 ft 62.89 °N, 155.98 °W | Updated 26 minutes ago

Overcast
Overcast
20 °F
Feels Like 7 °F
N
14
Wind Variable Wind from East

Today
High -- | Low -- °F
--% Chance of Precip.
Yesterday
High -- | Low -- °F
Precip. -- in
10:59 AM 3:51 PM
Waxing Crescent, 47% visible
Pressure 30.29 in
Visibility 10.0 miles
Clouds Overcast 13000 ft
Windchill 7 °F
Dew Point 18 °F
Humidity 93%
Rainfall 0.00 in
Snow Depth Not available.
UV 0 out of 12
Pollen Not available.
Air Quality Not available.
Flu Activity Not available.
METAR PATL 281255Z AUTO 09012KT 10SM OVC130 M07/M08 A3022 RMK AO2 SLP257 T10661076 $

More Conditions Fewer Conditions

Pressure 30.29 in
Visibility 10.0 miles
Clouds Overcast 13000 ft
Windchill 7 °F
Dew Point 18 °F
Humidity 93%
Rainfall 0.00 in
Snow Depth Not available.
UV 0 out of 12
Pollen Not available.
Air Quality Not available.
Flu Activity Not available.
METAR PATL 281255Z AUTO 09012KT 10SM OVC130 M07/M08 A3022 RMK AO2 SLP257 T10661076 $

More Conditions Fewer Conditions

10-Day Weather Forecast

Almanac

Astronomy

Dec. 28, 2014 Rise Set
Actual Time
Civil Twilight
Nautical Twilight
Astronomical Twilight
Moon
Length of Visible Light
Length of Day
Tomorrow will be .
, % of the Moon is Illuminated

Today's Extremes

State Highs State Lows

Community

WunderPhotos

Upload Photos

1,781,258 photos uploaded!

WunderBlogs® & News

Nearby

Air Quality

  Air Quality AQ Index Pollutant
Not available.

Snow Depth

Station Depth Elevation

Earthquake Activity

City Distance Mag. Time & Date
Minimum magnitude displayed is 2.5.

Coastal Water Temperatures

Place Temperature

Nearby Weather Stations